sensor_id;sensor_type;location;lat;lon;timestamp;pressure;altitude;pressure_sealevel;temperature;humidity
73105;BME280;61296;50.526;30.792;2023-07-09T00:14:00;99308.13;;;15.79;85.17
73105;BME280;61296;50.526;30.792;2023-07-09T00:29:19;99337.50;;;16.04;87.12
73105;BME280;61296;50.526;30.792;2023-07-09T00:44:41;99300.22;;;15.78;87.34
73105;BME280;61296;50.526;30.792;2023-07-09T01:00:06;99260.63;;;15.43;86.92
73105;BME280;61296;50.526;30.792;2023-07-09T01:15:30;99257.47;;;15.41;85.06
73105;BME280;61296;50.526;30.792;2023-07-09T01:30:49;99285.53;;;15.47;84.44
73105;BME280;61296;50.526;30.792;2023-07-09T01:46:13;99241.53;;;15.18;82.96
73105;BME280;61296;50.526;30.792;2023-07-09T02:01:33;99279.88;;;15.23;81.22
73105;BME280;61296;50.526;30.792;2023-07-09T02:16:54;99376.56;;;15.86;80.05
73105;BME280;61296;50.526;30.792;2023-07-09T02:32:21;99336.75;;;15.69;79.71
73105;BME280;61296;50.526;30.792;2023-07-09T02:47:40;99418.41;;;15.99;79.35
73105;BME280;61296;50.526;30.792;2023-07-09T03:03:02;99411.06;;;16.15;79.70
73105;BME280;61296;50.526;30.792;2023-07-09T03:18:22;99357.47;;;15.92;78.82
73105;BME280;61296;50.526;30.792;2023-07-09T03:33:41;99352.97;;;16.05;75.92
73105;BME280;61296;50.526;30.792;2023-07-09T03:49:01;99305.38;;;16.06;71.02
73105;BME280;61296;50.526;30.792;2023-07-09T04:04:21;99291.69;;;15.92;71.76
73105;BME280;61296;50.526;30.792;2023-07-09T04:19:41;99388.34;;;16.82;68.71
73105;BME280;61296;50.526;30.792;2023-07-09T04:35:00;99302.59;;;17.07;65.34
73105;BME280;61296;50.526;30.792;2023-07-09T04:50:20;99330.69;;;17.76;63.95
73105;BME280;61296;50.526;30.792;2023-07-09T05:05:46;99393.66;;;18.78;61.84
73105;BME280;61296;50.526;30.792;2023-07-09T05:21:06;99315.78;;;18.55;59.69
73105;BME280;61296;50.526;30.792;2023-07-09T05:36:26;99353.09;;;18.77;59.45
73105;BME280;61296;50.526;30.792;2023-07-09T05:51:46;99323.44;;;19.16;58.43
73105;BME280;61296;50.526;30.792;2023-07-09T06:07:05;99383.19;;;20.31;55.60
73105;BME280;61296;50.526;30.792;2023-07-09T06:22:26;99340.78;;;20.61;53.16
73105;BME280;61296;50.526;30.792;2023-07-09T06:37:45;99354.97;;;20.80;52.80
73105;BME280;61296;50.526;30.792;2023-07-09T06:53:04;99347.19;;;21.09;50.88
73105;BME280;61296;50.526;30.792;2023-07-09T07:08:25;99337.19;;;21.33;50.21
73105;BME280;61296;50.526;30.792;2023-07-09T07:23:45;99416.13;;;22.29;47.65
73105;BME280;61296;50.526;30.792;2023-07-09T07:39:04;99314.22;;;21.82;48.65
73105;BME280;61296;50.526;30.792;2023-07-09T07:54:23;99318.22;;;22.25;43.97
73105;BME280;61296;50.526;30.792;2023-07-09T08:09:44;99319.84;;;22.44;44.73
73105;BME280;61296;50.526;30.792;2023-07-09T08:25:04;99398.28;;;23.34;42.71
73105;BME280;61296;50.526;30.792;2023-07-09T08:40:23;99337.19;;;23.11;43.98
73105;BME280;61296;50.526;30.792;2023-07-09T08:55:43;99304.94;;;23.24;42.09
73105;BME280;61296;50.526;30.792;2023-07-09T09:11:18;99384.44;;;23.85;44.46
73105;BME280;61296;50.526;30.792;2023-07-09T09:26:42;99304.59;;;22.95;43.52
73105;BME280;61296;50.526;30.792;2023-07-09T09:42:02;99370.19;;;22.97;43.88
73105;BME280;61296;50.526;30.792;2023-07-09T09:57:24;99310.69;;;23.30;44.38
73105;BME280;61296;50.526;30.792;2023-07-09T10:12:59;99337.34;;;23.53;43.57
73105;BME280;61296;50.526;30.792;2023-07-09T10:44:14;99368.41;;;23.68;39.88
73105;BME280;61296;50.526;30.792;2023-07-09T10:59:39;99341.81;;;24.05;40.79
73105;BME280;61296;50.526;30.792;2023-07-09T11:15:04;99323.34;;;23.71;41.61
73105;BME280;61296;50.526;30.792;2023-07-09T11:30:27;99342.72;;;24.30;40.11
73105;BME280;61296;50.526;30.792;2023-07-09T11:45:48;99239.88;;;23.72;38.70
73105;BME280;61296;50.526;30.792;2023-07-09T12:01:14;99331.03;;;24.22;39.98
73105;BME280;61296;50.526;30.792;2023-07-09T12:16:38;99310.31;;;24.10;40.36
73105;BME280;61296;50.526;30.792;2023-07-09T12:31:59;99312.94;;;24.14;40.52
73105;BME280;61296;50.526;30.792;2023-07-09T12:47:20;99274.00;;;23.98;38.99
73105;BME280;61296;50.526;30.792;2023-07-09T13:02:39;99222.78;;;24.03;39.68
73105;BME280;61296;50.526;30.792;2023-07-09T13:18:11;99253.06;;;24.41;40.88
73105;BME280;61296;50.526;30.792;2023-07-09T13:33:31;99263.97;;;23.97;39.73
73105;BME280;61296;50.526;30.792;2023-07-09T13:48:53;99258.19;;;24.09;39.82
73105;BME280;61296;50.526;30.792;2023-07-09T14:04:15;99215.81;;;23.89;38.75
73105;BME280;61296;50.526;30.792;2023-07-09T14:19:34;99262.75;;;23.98;39.89
73105;BME280;61296;50.526;30.792;2023-07-09T14:34:53;99239.88;;;23.72;38.94
73105;BME280;61296;50.526;30.792;2023-07-09T14:50:13;99290.72;;;23.74;40.84
73105;BME280;61296;50.526;30.792;2023-07-09T15:05:32;99288.78;;;24.07;40.19
73105;BME280;61296;50.526;30.792;2023-07-09T15:20:58;99277.28;;;23.87;39.37
73105;BME280;61296;50.526;30.792;2023-07-09T15:36:18;99270.09;;;23.86;39.85
73105;BME280;61296;50.526;30.792;2023-07-09T15:51:38;99222.75;;;23.42;39.89
73105;BME280;61296;50.526;30.792;2023-07-09T16:06:59;99296.34;;;23.55;39.78
73105;BME280;61296;50.526;30.792;2023-07-09T16:22:20;99310.06;;;23.53;40.46
73105;BME280;61296;50.526;30.792;2023-07-09T16:37:44;99337.22;;;23.56;40.12
73105;BME280;61296;50.526;30.792;2023-07-09T16:53:12;99307.59;;;23.19;40.20
73105;BME280;61296;50.526;30.792;2023-07-09T17:08:33;99228.31;;;22.51;40.89
73105;BME280;61296;50.526;30.792;2023-07-09T17:23:52;99307.50;;;22.73;42.05
73105;BME280;61296;50.526;30.792;2023-07-09T17:39:19;99259.59;;;22.00;43.30
73105;BME280;61296;50.526;30.792;2023-07-09T17:54:42;99313.69;;;21.97;44.61
73105;BME280;61296;50.526;30.792;2023-07-09T18:10:02;99322.88;;;21.75;44.90
73105;BME280;61296;50.526;30.792;2023-07-09T18:25:21;99316.19;;;21.29;45.93
73105;BME280;61296;50.526;30.792;2023-07-09T18:40:45;99370.63;;;21.24;48.12
73105;BME280;61296;50.526;30.792;2023-07-09T18:56:04;99353.03;;;20.89;48.91
73105;BME280;61296;50.526;30.792;2023-07-09T19:11:24;99359.34;;;20.55;50.49
73105;BME280;61296;50.526;30.792;2023-07-09T19:26:43;99297.47;;;19.77;52.12
73105;BME280;61296;50.526;30.792;2023-07-09T19:42:12;99333.53;;;19.84;52.26
73105;BME280;61296;50.526;30.792;2023-07-09T19:57:31;99274.00;;;19.32;54.20
73105;BME280;61296;50.526;30.792;2023-07-09T20:12:52;99244.50;;;18.90;55.42
73105;BME280;61296;50.526;30.792;2023-07-09T20:28:23;99253.16;;;18.79;58.06
73105;BME280;61296;50.526;30.792;2023-07-09T20:43:43;99268.81;;;18.73;59.37
73105;BME280;61296;50.526;30.792;2023-07-09T20:59:07;99322.47;;;18.77;60.48
73105;BME280;61296;50.526;30.792;2023-07-09T21:14:30;99297.88;;;18.56;61.97
73105;BME280;61296;50.526;30.792;2023-07-09T21:29:49;99252.88;;;18.08;63.71
73105;BME280;61296;50.526;30.792;2023-07-09T21:45:09;99279.56;;;18.22;64.87
73105;BME280;61296;50.526;30.792;2023-07-09T22:00:28;99299.16;;;18.18;65.96
73105;BME280;61296;50.526;30.792;2023-07-09T22:15:47;99357.13;;;18.40;66.30
73105;BME280;61296;50.526;30.792;2023-07-09T22:31:09;99242.13;;;17.54;67.24
73105;BME280;61296;50.526;30.792;2023-07-09T22:46:29;99258.28;;;17.40;67.86
73105;BME280;61296;50.526;30.792;2023-07-09T23:01:49;99282.81;;;17.45;67.43
73105;BME280;61296;50.526;30.792;2023-07-09T23:17:10;99290.25;;;17.51;68.16
73105;BME280;61296;50.526;30.792;2023-07-09T23:32:33;99198.88;;;16.94;68.73
73105;BME280;61296;50.526;30.792;2023-07-09T23:47:54;99217.41;;;16.77;70.28
